Terminal Aerodrome Forecast
Issued by NWS

Home | Current Version | Previous Version | Text Only | Print | Product List | Glossary On
Versions: 1 2 3 4 5 6 7 8 9 10 11 12 13 14 15 16 17 18
000
FTAK31 PANC 281728
TAFAVD
TAF
PAVD 281728Z 2818/2918 00000KT 1SM -SN BR SCT001 OVC012
      TEMPO 2818/2822 1/2SM SN FZFG SCT001 BKN007
     FM290900 VRB03KT 2SM -SN BR SCT001 OVC015
      AMD LTD TO CLD VIS AND WIND=

USA.gov is the U.S. government's official web portal to all federal, state and local government web resources and services.